sensor_id;sensor_type;location;lat;lon;timestamp;P1;durP1;ratioP1;P2;durP2;ratioP2
7841;SDS011;3966;51.052;13.820;2022-09-21T00:00:17;5.18;;;2.30;;
7841;SDS011;3966;51.052;13.820;2022-09-21T00:02:42;5.32;;;2.40;;
7841;SDS011;3966;51.052;13.820;2022-09-21T00:05:08;3.38;;;2.08;;
7841;SDS011;3966;51.052;13.820;2022-09-21T00:07:33;4.20;;;2.70;;
7841;SDS011;3966;51.052;13.820;2022-09-21T00:09:59;2.83;;;2.30;;
7841;SDS011;3966;51.052;13.820;2022-09-21T00:12:24;2.97;;;2.33;;
7841;SDS011;3966;51.052;13.820;2022-09-21T00:14:50;6.07;;;2.38;;
7841;SDS011;3966;51.052;13.820;2022-09-21T00:17:15;3.20;;;2.47;;
7841;SDS011;3966;51.052;13.820;2022-09-21T00:19:40;4.13;;;2.63;;
7841;SDS011;3966;51.052;13.820;2022-09-21T00:22:06;2.30;;;2.10;;
7841;SDS011;3966;51.052;13.820;2022-09-21T00:24:32;3.03;;;2.20;;
7841;SDS011;3966;51.052;13.820;2022-09-21T00:26:59;3.35;;;2.60;;
7841;SDS011;3966;51.052;13.820;2022-09-21T00:29:24;3.60;;;2.65;;
7841;SDS011;3966;51.052;13.820;2022-09-21T00:31:49;2.85;;;2.28;;
7841;SDS011;3966;51.052;13.820;2022-09-21T00:34:15;3.75;;;2.25;;
7841;SDS011;3966;51.052;13.820;2022-09-21T00:36:40;3.97;;;2.42;;
7841;SDS011;3966;51.052;13.820;2022-09-21T00:39:08;6.30;;;2.30;;
7841;SDS011;3966;51.052;13.820;2022-09-21T00:41:33;3.92;;;2.50;;
7841;SDS011;3966;51.052;13.820;2022-09-21T00:46:46;4.38;;;2.95;;
7841;SDS011;3966;51.052;13.820;2022-09-21T00:49:13;4.95;;;2.35;;
7841;SDS011;3966;51.052;13.820;2022-09-21T00:51:39;3.75;;;2.63;;
7841;SDS011;3966;51.052;13.820;2022-09-21T00:54:08;5.55;;;2.47;;
7841;SDS011;3966;51.052;13.820;2022-09-21T00:56:40;2.78;;;2.47;;
7841;SDS011;3966;51.052;13.820;2022-09-21T00:59:08;3.63;;;2.83;;
7841;SDS011;3966;51.052;13.820;2022-09-21T01:01:34;5.13;;;2.40;;
7841;SDS011;3966;51.052;13.820;2022-09-21T01:04:02;7.25;;;2.30;;
7841;SDS011;3966;51.052;13.820;2022-09-21T01:06:31;5.80;;;2.83;;
7841;SDS011;3966;51.052;13.820;2022-09-21T01:08:57;5.93;;;2.58;;
7841;SDS011;3966;51.052;13.820;2022-09-21T01:14:18;3.67;;;2.55;;
7841;SDS011;3966;51.052;13.820;2022-09-21T01:22:54;2.30;;;2.10;;
7841;SDS011;3966;51.052;13.820;2022-09-21T01:31:25;2.53;;;2.33;;
7841;SDS011;3966;51.052;13.820;2022-09-21T01:33:57;3.63;;;2.40;;
7841;SDS011;3966;51.052;13.820;2022-09-21T01:36:29;2.45;;;2.25;;
7841;SDS011;3966;51.052;13.820;2022-09-21T01:39:01;3.97;;;2.30;;
7841;SDS011;3966;51.052;13.820;2022-09-21T01:41:33;3.45;;;2.40;;
7841;SDS011;3966;51.052;13.820;2022-09-21T01:44:05;4.28;;;2.42;;
7841;SDS011;3966;51.052;13.820;2022-09-21T01:46:34;2.92;;;2.35;;
7841;SDS011;3966;51.052;13.820;2022-09-21T01:49:08;2.42;;;1.67;;
7841;SDS011;3966;51.052;13.820;2022-09-21T01:51:39;3.30;;;1.88;;
7841;SDS011;3966;51.052;13.820;2022-09-21T01:54:10;3.45;;;2.00;;
7841;SDS011;3966;51.052;13.820;2022-09-21T01:56:42;4.57;;;2.38;;
7841;SDS011;3966;51.052;13.820;2022-09-21T01:59:19;2.97;;;2.15;;
7841;SDS011;3966;51.052;13.820;2022-09-21T02:01:52;3.47;;;2.30;;
7841;SDS011;3966;51.052;13.820;2022-09-21T02:04:21;1.92;;;1.70;;
7841;SDS011;3966;51.052;13.820;2022-09-21T02:06:47;4.85;;;2.08;;
7841;SDS011;3966;51.052;13.820;2022-09-21T02:09:14;2.40;;;2.15;;
7841;SDS011;3966;51.052;13.820;2022-09-21T02:11:41;4.60;;;2.50;;
7841;SDS011;3966;51.052;13.820;2022-09-21T02:14:08;2.88;;;2.10;;
7841;SDS011;3966;51.052;13.820;2022-09-21T02:16:37;2.65;;;1.80;;
7841;SDS011;3966;51.052;13.820;2022-09-21T02:19:13;4.20;;;2.20;;
7841;SDS011;3966;51.052;13.820;2022-09-21T02:24:39;4.18;;;1.77;;
7841;SDS011;3966;51.052;13.820;2022-09-21T02:27:13;3.05;;;2.05;;
7841;SDS011;3966;51.052;13.820;2022-09-21T02:29:50;4.53;;;1.92;;
7841;SDS011;3966;51.052;13.820;2022-09-21T02:32:43;4.60;;;1.70;;
7841;SDS011;3966;51.052;13.820;2022-09-21T02:38:33;1.70;;;1.53;;
7841;SDS011;3966;51.052;13.820;2022-09-21T02:41:10;4.10;;;2.00;;
7841;SDS011;3966;51.052;13.820;2022-09-21T02:43:48;2.40;;;1.73;;
7841;SDS011;3966;51.052;13.820;2022-09-21T02:46:25;2.88;;;1.65;;
7841;SDS011;3966;51.052;13.820;2022-09-21T02:48:56;1.85;;;1.42;;
7841;SDS011;3966;51.052;13.820;2022-09-21T02:51:28;2.38;;;1.98;;
7841;SDS011;3966;51.052;13.820;2022-09-21T02:53:57;2.83;;;1.90;;
7841;SDS011;3966;51.052;13.820;2022-09-21T02:56:27;4.70;;;2.17;;
7841;SDS011;3966;51.052;13.820;2022-09-21T02:58:55;2.33;;;1.88;;
7841;SDS011;3966;51.052;13.820;2022-09-21T03:01:23;3.38;;;1.73;;
7841;SDS011;3966;51.052;13.820;2022-09-21T03:03:50;2.33;;;1.58;;
7841;SDS011;3966;51.052;13.820;2022-09-21T03:06:16;2.60;;;2.05;;
7841;SDS011;3966;51.052;13.820;2022-09-21T03:08:41;2.45;;;1.60;;
7841;SDS011;3966;51.052;13.820;2022-09-21T03:11:07;2.25;;;1.60;;
7841;SDS011;3966;51.052;13.820;2022-09-21T03:13:34;4.85;;;1.70;;
7841;SDS011;3966;51.052;13.820;2022-09-21T03:16:01;1.75;;;1.55;;
7841;SDS011;3966;51.052;13.820;2022-09-21T03:18:30;3.20;;;2.33;;
7841;SDS011;3966;51.052;13.820;2022-09-21T03:20:56;2.88;;;2.15;;
7841;SDS011;3966;51.052;13.820;2022-09-21T03:23:22;3.65;;;2.30;;
7841;SDS011;3966;51.052;13.820;2022-09-21T03:25:47;1.73;;;1.63;;
7841;SDS011;3966;51.052;13.820;2022-09-21T03:28:13;4.72;;;2.38;;
7841;SDS011;3966;51.052;13.820;2022-09-21T03:30:40;4.95;;;1.60;;
7841;SDS011;3966;51.052;13.820;2022-09-21T03:33:06;1.60;;;1.50;;
7841;SDS011;3966;51.052;13.820;2022-09-21T03:35:32;5.43;;;2.30;;
7841;SDS011;3966;51.052;13.820;2022-09-21T03:37:58;3.33;;;2.15;;
7841;SDS011;3966;51.052;13.820;2022-09-21T03:40:24;2.97;;;1.95;;
7841;SDS011;3966;51.052;13.820;2022-09-21T03:42:51;4.70;;;2.60;;
7841;SDS011;3966;51.052;13.820;2022-09-21T03:45:17;4.40;;;2.10;;
7841;SDS011;3966;51.052;13.820;2022-09-21T03:47:43;3.47;;;2.03;;
7841;SDS011;3966;51.052;13.820;2022-09-21T03:50:09;2.95;;;1.75;;
7841;SDS011;3966;51.052;13.820;2022-09-21T03:52:35;3.53;;;2.28;;
7841;SDS011;3966;51.052;13.820;2022-09-21T03:55:02;2.65;;;2.17;;
7841;SDS011;3966;51.052;13.820;2022-09-21T03:57:30;7.25;;;2.20;;
7841;SDS011;3966;51.052;13.820;2022-09-21T03:59:59;5.15;;;2.00;;
7841;SDS011;3966;51.052;13.820;2022-09-21T04:02:29;5.03;;;2.20;;
7841;SDS011;3966;51.052;13.820;2022-09-21T04:04:55;2.03;;;1.83;;
7841;SDS011;3966;51.052;13.820;2022-09-21T04:07:21;4.40;;;2.53;;
7841;SDS011;3966;51.052;13.820;2022-09-21T04:09:46;4.10;;;2.47;;
7841;SDS011;3966;51.052;13.820;2022-09-21T04:12:12;3.47;;;2.88;;
7841;SDS011;3966;51.052;13.820;2022-09-21T04:14:37;3.40;;;2.38;;
7841;SDS011;3966;51.052;13.820;2022-09-21T04:17:03;3.25;;;2.20;;
7841;SDS011;3966;51.052;13.820;2022-09-21T04:19:29;2.95;;;2.58;;
7841;SDS011;3966;51.052;13.820;2022-09-21T04:21:54;2.58;;;2.22;;
7841;SDS011;3966;51.052;13.820;2022-09-21T04:24:20;3.25;;;2.47;;
7841;SDS011;3966;51.052;13.820;2022-09-21T04:26:46;5.53;;;2.40;;
7841;SDS011;3966;51.052;13.820;2022-09-21T04:29:12;4.78;;;2.63;;
7841;SDS011;3966;51.052;13.820;2022-09-21T04:31:39;3.55;;;2.22;;
7841;SDS011;3966;51.052;13.820;2022-09-21T04:34:04;4.65;;;2.65;;
7841;SDS011;3966;51.052;13.820;2022-09-21T04:36:30;7.78;;;2.83;;
7841;SDS011;3966;51.052;13.820;2022-09-21T04:38:56;6.50;;;3.08;;
7841;SDS011;3966;51.052;13.820;2022-09-21T04:41:24;6.78;;;2.40;;
7841;SDS011;3966;51.052;13.820;2022-09-21T04:43:51;4.28;;;2.83;;
7841;SDS011;3966;51.052;13.820;2022-09-21T04:46:18;4.88;;;2.83;;
7841;SDS011;3966;51.052;13.820;2022-09-21T04:48:44;5.40;;;2.80;;
7841;SDS011;3966;51.052;13.820;2022-09-21T04:51:10;3.63;;;2.85;;
7841;SDS011;3966;51.052;13.820;2022-09-21T04:53:37;4.78;;;2.90;;
7841;SDS011;3966;51.052;13.820;2022-09-21T04:56:04;4.82;;;2.97;;
7841;SDS011;3966;51.052;13.820;2022-09-21T04:58:31;3.92;;;2.83;;
7841;SDS011;3966;51.052;13.820;2022-09-21T05:00:57;5.30;;;2.70;;
7841;SDS011;3966;51.052;13.820;2022-09-21T05:03:23;5.40;;;2.45;;
7841;SDS011;3966;51.052;13.820;2022-09-21T05:05:50;3.92;;;2.47;;
7841;SDS011;3966;51.052;13.820;2022-09-21T05:08:18;8.38;;;3.25;;
7841;SDS011;3966;51.052;13.820;2022-09-21T05:11:07;4.85;;;3.03;;
7841;SDS011;3966;51.052;13.820;2022-09-21T05:13:34;4.63;;;3.15;;
7841;SDS011;3966;51.052;13.820;2022-09-21T05:16:00;4.90;;;3.10;;
7841;SDS011;3966;51.052;13.820;2022-09-21T05:18:25;4.13;;;2.67;;
7841;SDS011;3966;51.052;13.820;2022-09-21T05:20:54;6.82;;;3.38;;
7841;SDS011;3966;51.052;13.820;2022-09-21T05:23:24;6.65;;;3.10;;
7841;SDS011;3966;51.052;13.820;2022-09-21T05:25:53;5.05;;;2.63;;
7841;SDS011;3966;51.052;13.820;2022-09-21T05:28:19;7.88;;;3.95;;
7841;SDS011;3966;51.052;13.820;2022-09-21T05:30:51;8.52;;;3.40;;
7841;SDS011;3966;51.052;13.820;2022-09-21T05:33:22;7.55;;;4.07;;
7841;SDS011;3966;51.052;13.820;2022-09-21T05:36:01;6.55;;;3.40;;
7841;SDS011;3966;51.052;13.820;2022-09-21T05:38:35;8.85;;;4.15;;
7841;SDS011;3966;51.052;13.820;2022-09-21T05:41:01;11.32;;;3.78;;
7841;SDS011;3966;51.052;13.820;2022-09-21T05:43:27;6.88;;;3.22;;
7841;SDS011;3966;51.052;13.820;2022-09-21T05:45:56;7.00;;;4.45;;
7841;SDS011;3966;51.052;13.820;2022-09-21T05:48:35;7.47;;;4.20;;
7841;SDS011;3966;51.052;13.820;2022-09-21T05:51:09;5.55;;;3.15;;
7841;SDS011;3966;51.052;13.820;2022-09-21T06:04:20;7.70;;;4.43;;
7841;SDS011;3966;51.052;13.820;2022-09-21T06:06:45;5.88;;;3.78;;
7841;SDS011;3966;51.052;13.820;2022-09-21T06:09:11;4.82;;;3.97;;
7841;SDS011;3966;51.052;13.820;2022-09-21T06:11:36;7.75;;;4.45;;
7841;SDS011;3966;51.052;13.820;2022-09-21T06:14:02;9.13;;;4.38;;
7841;SDS011;3966;51.052;13.820;2022-09-21T06:16:37;8.57;;;4.60;;
7841;SDS011;3966;51.052;13.820;2022-09-21T06:19:10;7.63;;;4.78;;
7841;SDS011;3966;51.052;13.820;2022-09-21T06:21:36;11.60;;;5.35;;
7841;SDS011;3966;51.052;13.820;2022-09-21T06:24:01;5.32;;;3.60;;
7841;SDS011;3966;51.052;13.820;2022-09-21T06:26:27;13.15;;;4.43;;
7841;SDS011;3966;51.052;13.820;2022-09-21T06:28:52;10.10;;;4.70;;
7841;SDS011;3966;51.052;13.820;2022-09-21T06:31:18;9.85;;;4.10;;
7841;SDS011;3966;51.052;13.820;2022-09-21T06:33:44;10.23;;;4.50;;
7841;SDS011;3966;51.052;13.820;2022-09-21T06:36:09;8.88;;;5.20;;
7841;SDS011;3966;51.052;13.820;2022-09-21T06:38:35;10.85;;;4.30;;
7841;SDS011;3966;51.052;13.820;2022-09-21T06:41:01;11.75;;;4.97;;
7841;SDS011;3966;51.052;13.820;2022-09-21T06:43:28;10.55;;;5.20;;
7841;SDS011;3966;51.052;13.820;2022-09-21T06:45:57;6.53;;;4.43;;
7841;SDS011;3966;51.052;13.820;2022-09-21T06:48:24;13.35;;;5.80;;
7841;SDS011;3966;51.052;13.820;2022-09-21T06:50:55;10.13;;;5.57;;
7841;SDS011;3966;51.052;13.820;2022-09-21T06:53:25;8.35;;;4.85;;
7841;SDS011;3966;51.052;13.820;2022-09-21T06:56:05;10.00;;;5.25;;
7841;SDS011;3966;51.052;13.820;2022-09-21T06:58:32;14.40;;;5.72;;
7841;SDS011;3966;51.052;13.820;2022-09-21T07:01:03;8.77;;;5.03;;
7841;SDS011;3966;51.052;13.820;2022-09-21T07:03:32;9.57;;;5.57;;
7841;SDS011;3966;51.052;13.820;2022-09-21T07:05:58;9.68;;;5.50;;
7841;SDS011;3966;51.052;13.820;2022-09-21T07:08:23;10.52;;;4.53;;
7841;SDS011;3966;51.052;13.820;2022-09-21T07:10:50;9.98;;;5.60;;
7841;SDS011;3966;51.052;13.820;2022-09-21T07:13:15;9.73;;;4.30;;
7841;SDS011;3966;51.052;13.820;2022-09-21T07:15:41;8.30;;;3.88;;
7841;SDS011;3966;51.052;13.820;2022-09-21T07:18:11;10.45;;;5.32;;
7841;SDS011;3966;51.052;13.820;2022-09-21T07:20:37;7.60;;;5.63;;
7841;SDS011;3966;51.052;13.820;2022-09-21T07:23:14;6.45;;;4.82;;
7841;SDS011;3966;51.052;13.820;2022-09-21T07:25:42;7.43;;;4.55;;
7841;SDS011;3966;51.052;13.820;2022-09-21T07:28:08;10.50;;;4.45;;
7841;SDS011;3966;51.052;13.820;2022-09-21T07:30:35;11.48;;;5.82;;
7841;SDS011;3966;51.052;13.820;2022-09-21T07:33:01;12.40;;;5.57;;
7841;SDS011;3966;51.052;13.820;2022-09-21T07:35:27;9.05;;;4.95;;
7841;SDS011;3966;51.052;13.820;2022-09-21T07:37:53;11.75;;;5.82;;
7841;SDS011;3966;51.052;13.820;2022-09-21T07:40:22;8.18;;;4.65;;
7841;SDS011;3966;51.052;13.820;2022-09-21T07:42:48;11.95;;;5.80;;
7841;SDS011;3966;51.052;13.820;2022-09-21T07:45:13;6.95;;;4.40;;
7841;SDS011;3966;51.052;13.820;2022-09-21T07:47:39;6.63;;;4.20;;
7841;SDS011;3966;51.052;13.820;2022-09-21T07:50:04;9.50;;;4.60;;
7841;SDS011;3966;51.052;13.820;2022-09-21T07:52:30;9.07;;;5.07;;
7841;SDS011;3966;51.052;13.820;2022-09-21T07:54:55;8.30;;;4.78;;
7841;SDS011;3966;51.052;13.820;2022-09-21T07:57:21;13.05;;;5.43;;
7841;SDS011;3966;51.052;13.820;2022-09-21T08:00:05;16.77;;;5.70;;
7841;SDS011;3966;51.052;13.820;2022-09-21T08:02:31;8.90;;;3.63;;
7841;SDS011;3966;51.052;13.820;2022-09-21T08:04:57;13.32;;;5.40;;
7841;SDS011;3966;51.052;13.820;2022-09-21T08:07:22;5.15;;;4.28;;
7841;SDS011;3966;51.052;13.820;2022-09-21T08:09:48;10.85;;;5.38;;
7841;SDS011;3966;51.052;13.820;2022-09-21T08:12:14;11.65;;;4.43;;
7841;SDS011;3966;51.052;13.820;2022-09-21T08:14:42;10.45;;;5.03;;
7841;SDS011;3966;51.052;13.820;2022-09-21T08:17:08;11.00;;;4.78;;
7841;SDS011;3966;51.052;13.820;2022-09-21T08:19:34;10.52;;;5.45;;
7841;SDS011;3966;51.052;13.820;2022-09-21T08:22:00;5.50;;;3.85;;
7841;SDS011;3966;51.052;13.820;2022-09-21T08:24:26;6.32;;;4.60;;
7841;SDS011;3966;51.052;13.820;2022-09-21T08:26:51;10.18;;;5.00;;
7841;SDS011;3966;51.052;13.820;2022-09-21T08:29:17;6.63;;;4.68;;
7841;SDS011;3966;51.052;13.820;2022-09-21T08:31:43;7.93;;;5.35;;
7841;SDS011;3966;51.052;13.820;2022-09-21T08:34:10;10.77;;;4.05;;
7841;SDS011;3966;51.052;13.820;2022-09-21T08:36:36;11.93;;;4.13;;
7841;SDS011;3966;51.052;13.820;2022-09-21T08:39:01;9.63;;;4.45;;
7841;SDS011;3966;51.052;13.820;2022-09-21T08:44:38;13.52;;;4.78;;
7841;SDS011;3966;51.052;13.820;2022-09-21T08:47:16;5.68;;;4.28;;
7841;SDS011;3966;51.052;13.820;2022-09-21T08:49:50;7.40;;;4.75;;
7841;SDS011;3966;51.052;13.820;2022-09-21T08:52:19;7.53;;;4.03;;
7841;SDS011;3966;51.052;13.820;2022-09-21T08:54:58;6.95;;;4.32;;
7841;SDS011;3966;51.052;13.820;2022-09-21T08:57:30;6.93;;;4.30;;
7841;SDS011;3966;51.052;13.820;2022-09-21T08:59:58;12.07;;;3.50;;
7841;SDS011;3966;51.052;13.820;2022-09-21T09:02:39;5.28;;;3.70;;
7841;SDS011;3966;51.052;13.820;2022-09-21T09:11:11;6.25;;;3.55;;
7841;SDS011;3966;51.052;13.820;2022-09-21T09:16:18;5.45;;;3.05;;
7841;SDS011;3966;51.052;13.820;2022-09-21T09:19:21;5.75;;;2.83;;
7841;SDS011;3966;51.052;13.820;2022-09-21T09:21:56;10.98;;;3.10;;
7841;SDS011;3966;51.052;13.820;2022-09-21T09:24:38;5.10;;;2.50;;
7841;SDS011;3966;51.052;13.820;2022-09-21T09:27:14;3.42;;;2.60;;
7841;SDS011;3966;51.052;13.820;2022-09-21T09:30:02;4.60;;;2.20;;
7841;SDS011;3966;51.052;13.820;2022-09-21T09:33:04;5.40;;;2.42;;
7841;SDS011;3966;51.052;13.820;2022-09-21T09:38:37;6.70;;;2.20;;
7841;SDS011;3966;51.052;13.820;2022-09-21T09:44:02;3.95;;;2.00;;
7841;SDS011;3966;51.052;13.820;2022-09-21T09:46:58;4.10;;;2.03;;
7841;SDS011;3966;51.052;13.820;2022-09-21T09:52:38;6.30;;;2.10;;
7841;SDS011;3966;51.052;13.820;2022-09-21T09:55:21;3.17;;;1.70;;
7841;SDS011;3966;51.052;13.820;2022-09-21T09:57:54;4.53;;;2.17;;
7841;SDS011;3966;51.052;13.820;2022-09-21T10:00:20;2.50;;;2.00;;
7841;SDS011;3966;51.052;13.820;2022-09-21T10:07:53;4.28;;;1.73;;
7841;SDS011;3966;51.052;13.820;2022-09-21T10:12:53;5.88;;;1.65;;
7841;SDS011;3966;51.052;13.820;2022-09-21T10:15:25;3.67;;;1.33;;
7841;SDS011;3966;51.052;13.820;2022-09-21T10:18:00;3.30;;;1.77;;
7841;SDS011;3966;51.052;13.820;2022-09-21T10:20:31;3.13;;;1.40;;
7841;SDS011;3966;51.052;13.820;2022-09-21T10:22:58;5.05;;;1.90;;
7841;SDS011;3966;51.052;13.820;2022-09-21T10:25:24;4.05;;;1.65;;
7841;SDS011;3966;51.052;13.820;2022-09-21T10:27:50;5.53;;;1.60;;
7841;SDS011;3966;51.052;13.820;2022-09-21T10:32:54;3.17;;;1.48;;
7841;SDS011;3966;51.052;13.820;2022-09-21T10:35:21;4.47;;;1.40;;
7841;SDS011;3966;51.052;13.820;2022-09-21T10:37:47;1.50;;;1.40;;
7841;SDS011;3966;51.052;13.820;2022-09-21T10:40:34;5.13;;;1.40;;
7841;SDS011;3966;51.052;13.820;2022-09-21T10:43:01;1.98;;;1.30;;
7841;SDS011;3966;51.052;13.820;2022-09-21T10:45:28;2.13;;;1.10;;
7841;SDS011;3966;51.052;13.820;2022-09-21T10:47:56;1.25;;;1.00;;
7841;SDS011;3966;51.052;13.820;2022-09-21T10:53:10;1.20;;;1.00;;
7841;SDS011;3966;51.052;13.820;2022-09-21T10:58:27;2.53;;;0.80;;
7841;SDS011;3966;51.052;13.820;2022-09-21T11:00:53;2.05;;;0.80;;
7841;SDS011;3966;51.052;13.820;2022-09-21T11:05:54;2.13;;;1.05;;
7841;SDS011;3966;51.052;13.820;2022-09-21T11:08:25;5.65;;;1.08;;
7841;SDS011;3966;51.052;13.820;2022-09-21T11:11:04;2.28;;;0.90;;
7841;SDS011;3966;51.052;13.820;2022-09-21T11:14:05;1.88;;;0.60;;
7841;SDS011;3966;51.052;13.820;2022-09-21T11:16:40;4.07;;;0.85;;
7841;SDS011;3966;51.052;13.820;2022-09-21T11:24:53;1.08;;;0.80;;
7841;SDS011;3966;51.052;13.820;2022-09-21T11:27:41;1.60;;;0.90;;
7841;SDS011;3966;51.052;13.820;2022-09-21T11:30:16;2.10;;;1.05;;
7841;SDS011;3966;51.052;13.820;2022-09-21T11:35:38;5.88;;;0.98;;
7841;SDS011;3966;51.052;13.820;2022-09-21T11:38:33;3.92;;;0.98;;
7841;SDS011;3966;51.052;13.820;2022-09-21T11:41:36;2.67;;;0.90;;
7841;SDS011;3966;51.052;13.820;2022-09-21T11:44:23;2.35;;;0.85;;
7841;SDS011;3966;51.052;13.820;2022-09-21T11:49:48;0.98;;;0.80;;
7841;SDS011;3966;51.052;13.820;2022-09-21T11:52:41;1.75;;;1.00;;
7841;SDS011;3966;51.052;13.820;2022-09-21T11:55:46;3.33;;;1.00;;
7841;SDS011;3966;51.052;13.820;2022-09-21T11:58:35;1.00;;;0.77;;
7841;SDS011;3966;51.052;13.820;2022-09-21T12:01:54;1.13;;;0.90;;
7841;SDS011;3966;51.052;13.820;2022-09-21T12:07:06;2.97;;;0.85;;
7841;SDS011;3966;51.052;13.820;2022-09-21T12:09:48;4.03;;;1.00;;
7841;SDS011;3966;51.052;13.820;2022-09-21T12:12:37;1.60;;;0.80;;
7841;SDS011;3966;51.052;13.820;2022-09-21T12:15:19;2.03;;;0.80;;
7841;SDS011;3966;51.052;13.820;2022-09-21T12:26:09;1.40;;;0.82;;
7841;SDS011;3966;51.052;13.820;2022-09-21T12:28:41;0.80;;;0.80;;
7841;SDS011;3966;51.052;13.820;2022-09-21T12:31:22;1.25;;;0.95;;
7841;SDS011;3966;51.052;13.820;2022-09-21T12:34:44;3.65;;;1.10;;
7841;SDS011;3966;51.052;13.820;2022-09-21T12:37:07;1.42;;;1.02;;
7841;SDS011;3966;51.052;13.820;2022-09-21T12:39:43;4.85;;;0.90;;
7841;SDS011;3966;51.052;13.820;2022-09-21T12:45:03;1.60;;;0.98;;
7841;SDS011;3966;51.052;13.820;2022-09-21T12:47:42;1.00;;;0.70;;
7841;SDS011;3966;51.052;13.820;2022-09-21T12:50:26;1.20;;;1.10;;
7841;SDS011;3966;51.052;13.820;2022-09-21T12:53:03;1.45;;;0.80;;
7841;SDS011;3966;51.052;13.820;2022-09-21T12:58:27;1.55;;;0.73;;
7841;SDS011;3966;51.052;13.820;2022-09-21T13:04:16;2.72;;;0.77;;
7841;SDS011;3966;51.052;13.820;2022-09-21T13:07:14;1.52;;;0.93;;
7841;SDS011;3966;51.052;13.820;2022-09-21T13:10:13;1.58;;;0.75;;
7841;SDS011;3966;51.052;13.820;2022-09-21T13:12:43;0.65;;;0.65;;
7841;SDS011;3966;51.052;13.820;2022-09-21T13:15:18;0.77;;;0.77;;
7841;SDS011;3966;51.052;13.820;2022-09-21T13:18:04;3.63;;;0.90;;
7841;SDS011;3966;51.052;13.820;2022-09-21T13:20:39;0.73;;;0.68;;
7841;SDS011;3966;51.052;13.820;2022-09-21T13:23:10;2.05;;;0.77;;
7841;SDS011;3966;51.052;13.820;2022-09-21T13:25:48;1.05;;;0.90;;
7841;SDS011;3966;51.052;13.820;2022-09-21T13:28:23;1.88;;;0.90;;
7841;SDS011;3966;51.052;13.820;2022-09-21T13:33:38;1.52;;;0.70;;
7841;SDS011;3966;51.052;13.820;2022-09-21T13:36:28;1.50;;;1.15;;
7841;SDS011;3966;51.052;13.820;2022-09-21T13:41:34;1.20;;;1.00;;
7841;SDS011;3966;51.052;13.820;2022-09-21T13:44:03;4.00;;;1.10;;
7841;SDS011;3966;51.052;13.820;2022-09-21T13:51:50;2.35;;;1.10;;
7841;SDS011;3966;51.052;13.820;2022-09-21T13:54:16;1.15;;;1.00;;
7841;SDS011;3966;51.052;13.820;2022-09-21T13:56:45;1.25;;;0.95;;
7841;SDS011;3966;51.052;13.820;2022-09-21T13:59:21;0.90;;;0.90;;
7841;SDS011;3966;51.052;13.820;2022-09-21T14:01:50;0.80;;;0.60;;
7841;SDS011;3966;51.052;13.820;2022-09-21T14:04:17;1.70;;;0.70;;
7841;SDS011;3966;51.052;13.820;2022-09-21T14:06:55;2.28;;;0.80;;
7841;SDS011;3966;51.052;13.820;2022-09-21T14:09:33;1.20;;;0.52;;
7841;SDS011;3966;51.052;13.820;2022-09-21T14:12:22;1.35;;;0.70;;
7841;SDS011;3966;51.052;13.820;2022-09-21T14:15:07;0.55;;;0.55;;
7841;SDS011;3966;51.052;13.820;2022-09-21T14:17:43;3.80;;;0.75;;
7841;SDS011;3966;51.052;13.820;2022-09-21T14:20:30;1.60;;;0.82;;
7841;SDS011;3966;51.052;13.820;2022-09-21T14:25:57;1.00;;;0.90;;
7841;SDS011;3966;51.052;13.820;2022-09-21T14:28:40;2.05;;;0.82;;
7841;SDS011;3966;51.052;13.820;2022-09-21T14:31:25;2.08;;;0.80;;
7841;SDS011;3966;51.052;13.820;2022-09-21T14:33:53;1.38;;;0.90;;
7841;SDS011;3966;51.052;13.820;2022-09-21T14:36:23;0.90;;;0.90;;
7841;SDS011;3966;51.052;13.820;2022-09-21T14:39:05;0.70;;;0.70;;
7841;SDS011;3966;51.052;13.820;2022-09-21T14:41:41;1.30;;;0.93;;
7841;SDS011;3966;51.052;13.820;2022-09-21T14:44:21;1.55;;;1.40;;
7841;SDS011;3966;51.052;13.820;2022-09-21T14:47:05;1.00;;;0.90;;
7841;SDS011;3966;51.052;13.820;2022-09-21T14:52:26;1.52;;;0.80;;
7841;SDS011;3966;51.052;13.820;2022-09-21T14:57:56;1.60;;;0.80;;
7841;SDS011;3966;51.052;13.820;2022-09-21T15:00:34;1.00;;;0.90;;
7841;SDS011;3966;51.052;13.820;2022-09-21T15:05:58;0.85;;;0.45;;
7841;SDS011;3966;51.052;13.820;2022-09-21T15:09:04;1.25;;;0.90;;
7841;SDS011;3966;51.052;13.820;2022-09-21T15:12:19;1.70;;;0.85;;
7841;SDS011;3966;51.052;13.820;2022-09-21T15:17:53;1.23;;;0.88;;
7841;SDS011;3966;51.052;13.820;2022-09-21T15:20:23;2.22;;;1.30;;
7841;SDS011;3966;51.052;13.820;2022-09-21T15:22:52;1.80;;;1.27;;
7841;SDS011;3966;51.052;13.820;2022-09-21T15:25:19;2.35;;;1.05;;
7841;SDS011;3966;51.052;13.820;2022-09-21T15:27:46;0.85;;;0.80;;
7841;SDS011;3966;51.052;13.820;2022-09-21T15:30:20;2.65;;;0.90;;
7841;SDS011;3966;51.052;13.820;2022-09-21T15:32:51;2.05;;;0.70;;
7841;SDS011;3966;51.052;13.820;2022-09-21T15:37:51;1.10;;;0.93;;
7841;SDS011;3966;51.052;13.820;2022-09-21T15:40:28;1.05;;;0.95;;
7841;SDS011;3966;51.052;13.820;2022-09-21T15:45:52;1.20;;;1.10;;
7841;SDS011;3966;51.052;13.820;2022-09-21T15:48:22;1.00;;;0.90;;
7841;SDS011;3966;51.052;13.820;2022-09-21T15:50:51;0.77;;;0.77;;
7841;SDS011;3966;51.052;13.820;2022-09-21T15:53:26;2.40;;;1.30;;
7841;SDS011;3966;51.052;13.820;2022-09-21T15:55:55;1.63;;;1.08;;
7841;SDS011;3966;51.052;13.820;2022-09-21T15:58:34;4.65;;;1.20;;
7841;SDS011;3966;51.052;13.820;2022-09-21T16:01:03;1.17;;;1.08;;
7841;SDS011;3966;51.052;13.820;2022-09-21T16:03:34;0.80;;;0.80;;
7841;SDS011;3966;51.052;13.820;2022-09-21T16:06:00;2.95;;;1.73;;
7841;SDS011;3966;51.052;13.820;2022-09-21T16:09:03;2.28;;;1.98;;
7841;SDS011;3966;51.052;13.820;2022-09-21T16:11:48;5.60;;;2.55;;
7841;SDS011;3966;51.052;13.820;2022-09-21T16:14:14;7.95;;;3.30;;
7841;SDS011;3966;51.052;13.820;2022-09-21T16:20:02;6.65;;;4.00;;
7841;SDS011;3966;51.052;13.820;2022-09-21T16:22:48;8.20;;;4.80;;
7841;SDS011;3966;51.052;13.820;2022-09-21T16:25:33;9.80;;;5.05;;
7841;SDS011;3966;51.052;13.820;2022-09-21T16:30:43;8.40;;;5.65;;
7841;SDS011;3966;51.052;13.820;2022-09-21T16:36:32;4.72;;;3.00;;
7841;SDS011;3966;51.052;13.820;2022-09-21T16:38:50;6.93;;;3.95;;
7841;SDS011;3966;51.052;13.820;2022-09-21T16:41:20;7.97;;;4.57;;
7841;SDS011;3966;51.052;13.820;2022-09-21T16:44:11;6.40;;;3.45;;
7841;SDS011;3966;51.052;13.820;2022-09-21T16:46:43;3.97;;;3.33;;
7841;SDS011;3966;51.052;13.820;2022-09-21T16:49:11;6.55;;;4.05;;
7841;SDS011;3966;51.052;13.820;2022-09-21T16:51:43;4.80;;;2.95;;
7841;SDS011;3966;51.052;13.820;2022-09-21T16:54:10;4.97;;;2.40;;
7841;SDS011;3966;51.052;13.820;2022-09-21T16:56:37;2.72;;;2.53;;
7841;SDS011;3966;51.052;13.820;2022-09-21T16:59:13;2.67;;;2.30;;
7841;SDS011;3966;51.052;13.820;2022-09-21T17:01:41;2.15;;;1.95;;
7841;SDS011;3966;51.052;13.820;2022-09-21T17:04:07;4.97;;;2.53;;
7841;SDS011;3966;51.052;13.820;2022-09-21T17:06:34;2.47;;;2.28;;
7841;SDS011;3966;51.052;13.820;2022-09-21T17:09:00;1.95;;;1.75;;
7841;SDS011;3966;51.052;13.820;2022-09-21T17:11:37;4.45;;;2.30;;
7841;SDS011;3966;51.052;13.820;2022-09-21T17:14:03;1.80;;;1.70;;
7841;SDS011;3966;51.052;13.820;2022-09-21T17:16:29;2.85;;;1.98;;
7841;SDS011;3966;51.052;13.820;2022-09-21T17:18:55;3.58;;;1.73;;
7841;SDS011;3966;51.052;13.820;2022-09-21T17:21:20;3.38;;;1.88;;
7841;SDS011;3966;51.052;13.820;2022-09-21T17:23:47;2.92;;;1.50;;
7841;SDS011;3966;51.052;13.820;2022-09-21T17:26:13;2.92;;;1.42;;
7841;SDS011;3966;51.052;13.820;2022-09-21T17:28:41;2.20;;;2.00;;
7841;SDS011;3966;51.052;13.820;2022-09-21T17:31:09;2.78;;;1.67;;
7841;SDS011;3966;51.052;13.820;2022-09-21T17:33:36;2.30;;;1.58;;
7841;SDS011;3966;51.052;13.820;2022-09-21T17:36:02;2.75;;;1.85;;
7841;SDS011;3966;51.052;13.820;2022-09-21T17:38:30;2.75;;;2.47;;
7841;SDS011;3966;51.052;13.820;2022-09-21T17:40:56;7.72;;;2.90;;
7841;SDS011;3966;51.052;13.820;2022-09-21T17:46:09;2.55;;;2.30;;
7841;SDS011;3966;51.052;13.820;2022-09-21T17:48:42;4.32;;;2.15;;
7841;SDS011;3966;51.052;13.820;2022-09-21T17:51:08;2.85;;;2.20;;
7841;SDS011;3966;51.052;13.820;2022-09-21T17:53:34;2.45;;;2.25;;